Time;durP1;ratioP1;P1;durP2;ratioP2;P2;SDS_P1;SDS_P2;PMS_P1;PMS_P2;Temp;Humidity;BMP_temperature;BMP_pressure;BME280_temperature;BME280_humidity;BME280_pressure;Samples;Min_cycle;Max_cycle;Signal;HPM_P1;HPM_P2
2022/06/26 00:00:13;;;;;;;0.45;0.45;;;18.40;99.90;;;;;;5073127;28;20039;-71
2022/06/26 00:02:38;;;;;;;0.08;0.08;;;18.40;99.90;;;;;;5090486;28;20045;-71
2022/06/26 00:05:07;;;;;;;0.00;0.00;;;18.30;99.90;;;;;;5090225;28;20051;-71
2022/06/26 00:07:33;;;;;;;0.28;0.28;;;18.40;99.90;;;;;;5087795;28;20506;-71
2022/06/26 00:09:58;;;;;;;0.57;0.43;;;18.40;99.90;;;;;;5069439;28;20093;-71
2022/06/26 00:12:24;;;;;;;0.70;0.32;;;18.40;99.90;;;;;;5052103;28;20723;-71
2022/06/26 00:14:50;;;;;;;0.00;0.00;;;18.30;99.90;;;;;;5051507;28;20040;-71
2022/06/26 00:17:15;;;;;;;0.30;0.30;;;18.40;99.90;;;;;;5050154;28;20047;-71
2022/06/26 00:19:41;;;;;;;0.35;0.35;;;18.30;99.90;;;;;;5069513;28;20044;-71
2022/06/26 00:22:08;;;;;;;0.90;0.38;;;18.30;99.90;;;;;;5053575;28;20100;-67
2022/06/26 00:24:34;;;;;;;6.30;2.15;;;18.40;99.90;;;;;;5090316;28;20119;-68
2022/06/26 00:27:02;;;;;;;0.00;0.00;;;18.30;99.90;;;;;;5089458;28;20502;-68
2022/06/26 00:29:30;;;;;;;0.00;0.00;;;18.20;99.90;;;;;;5086831;28;20044;-68
2022/06/26 00:31:55;;;;;;;0.20;0.20;;;18.20;99.90;;;;;;5069920;28;20055;-68
2022/06/26 00:34:21;;;;;;;0.10;0.10;;;18.20;99.90;;;;;;5069117;28;20395;-68
2022/06/26 00:36:46;;;;;;;0.20;0.20;;;18.20;99.90;;;;;;5070499;28;20450;-68
2022/06/26 00:39:12;;;;;;;0.20;0.20;;;18.20;99.90;;;;;;5051365;28;20041;-67
2022/06/26 00:41:38;;;;;;;0.17;0.17;;;18.30;99.90;;;;;;5068177;28;20397;-67
2022/06/26 00:44:15;;;;;;;6.05;2.20;;;18.20;99.90;;;;;;5069908;28;20093;-67
2022/06/26 00:46:42;;;;;;;0.40;0.40;;;18.20;99.90;;;;;;5069958;28;20052;-68
2022/06/26 00:49:07;;;;;;;0.20;0.20;;;18.20;99.90;;;;;;5071734;28;20043;-68
2022/06/26 00:51:36;;;;;;;0.00;0.00;;;18.30;99.90;;;;;;5089942;28;20040;-68
2022/06/26 00:54:02;;;;;;;0.13;0.13;;;18.30;99.90;;;;;;5089980;28;20110;-68
2022/06/26 00:56:27;;;;;;;0.00;0.00;;;18.30;99.90;;;;;;5089164;28;20510;-68
2022/06/26 00:58:53;;;;;;;0.00;0.00;;;18.20;99.90;;;;;;5080203;28;20118;-68
2022/06/26 01:01:18;;;;;;;0.03;0.03;;;18.20;99.90;;;;;;5076334;28;20451;-68
2022/06/26 01:03:44;;;;;;;0.17;0.05;;;18.10;99.90;;;;;;5066812;28;20044;-67
2022/06/26 01:06:09;;;;;;;0.00;0.00;;;18.10;99.90;;;;;;5072499;28;20051;-68
2022/06/26 01:08:35;;;;;;;0.00;0.00;;;18.10;99.90;;;;;;5058480;28;20044;-68
2022/06/26 01:11:17;;;;;;;0.10;0.10;;;18.10;99.90;;;;;;5078931;28;20040;-68
2022/06/26 01:13:47;;;;;;;0.00;0.00;;;18.10;99.90;;;;;;5086766;28;20055;-68
2022/06/26 01:16:14;;;;;;;0.57;0.57;;;18.10;99.90;;;;;;5092775;28;20093;-68
2022/06/26 01:18:41;;;;;;;1.15;0.65;;;18.10;99.90;;;;;;5090361;28;20048;-68
2022/06/26 01:21:07;;;;;;;0.00;0.00;;;18.10;99.90;;;;;;5079135;28;20111;-68
2022/06/26 01:23:32;;;;;;;0.00;0.00;;;18.00;99.90;;;;;;5061443;28;20123;-68
2022/06/26 01:25:58;;;;;;;0.00;0.00;;;18.00;99.90;;;;;;5092283;28;20127;-68
2022/06/26 01:28:24;;;;;;;0.00;0.00;;;18.00;99.90;;;;;;5071697;28;20029;-68
2022/06/26 01:30:50;;;;;;;0.00;0.00;;;17.90;99.90;;;;;;5062744;28;20047;-68
2022/06/26 01:33:15;;;;;;;0.80;0.43;;;18.00;99.90;;;;;;5092204;28;20078;-69
2022/06/26 01:35:41;;;;;;;0.22;0.22;;;17.90;99.90;;;;;;5073862;28;20123;-68
2022/06/26 01:38:20;;;;;;;0.00;0.00;;;18.00;99.90;;;;;;5071760;28;20060;-69
2022/06/26 01:40:46;;;;;;;0.03;0.03;;;17.90;99.90;;;;;;5055947;28;20472;-69
2022/06/26 01:43:15;;;;;;;0.35;0.32;;;17.90;99.90;;;;;;5072140;28;20037;-68
2022/06/26 01:45:45;;;;;;;0.05;0.05;;;17.90;99.90;;;;;;5063914;28;20044;-69
2022/06/26 01:48:11;;;;;;;0.13;0.13;;;17.90;99.90;;;;;;5060012;28;20469;-68
2022/06/26 01:50:37;;;;;;;0.00;0.00;;;17.90;99.90;;;;;;5078533;28;20479;-69
2022/06/26 01:53:03;;;;;;;0.00;0.00;;;17.90;99.90;;;;;;5071442;28;20032;-69
2022/06/26 01:55:29;;;;;;;0.00;0.00;;;17.90;99.90;;;;;;5072550;28;20055;-69
2022/06/26 01:57:54;;;;;;;0.32;0.25;;;17.90;99.90;;;;;;5052823;28;20454;-69
2022/06/26 02:00:20;;;;;;;0.10;0.10;;;17.80;99.90;;;;;;5070449;28;20085;-68
2022/06/26 02:02:46;;;;;;;0.20;0.20;;;17.80;99.90;;;;;;5061483;28;20048;-69
2022/06/26 02:05:12;;;;;;;0.20;0.20;;;17.90;99.90;;;;;;5072142;28;20044;-69
2022/06/26 02:07:38;;;;;;;0.03;0.03;;;17.90;99.90;;;;;;5067454;28;20396;-70
2022/06/26 02:15:34;;;;;;;0.00;0.00;;;17.90;99.90;;;;;;5075656;28;20049;-69
2022/06/26 02:17:59;;;;;;;0.00;0.00;;;17.90;99.90;;;;;;5072044;28;20044;-69
2022/06/26 02:20:25;;;;;;;1.13;0.32;;;17.90;99.90;;;;;;5071425;28;20080;-69
2022/06/26 02:22:51;;;;;;;0.17;0.08;;;17.90;99.90;;;;;;5050346;28;20080;-69
2022/06/26 02:25:16;;;;;;;0.52;0.47;;;17.90;99.90;;;;;;5065087;28;20052;-69
2022/06/26 02:27:42;;;;;;;0.00;0.00;;;17.90;99.90;;;;;;5071252;28;20047;-69
2022/06/26 02:30:08;;;;;;;0.20;0.20;;;17.90;99.90;;;;;;5068917;28;20045;-69
2022/06/26 02:32:33;;;;;;;0.00;0.00;;;17.90;99.90;;;;;;5071600;28;20155;-69
2022/06/26 02:34:59;;;;;;;1.75;1.65;;;17.90;99.90;;;;;;5069909;28;20053;-69
2022/06/26 02:37:24;;;;;;;0.08;0.08;;;17.90;99.90;;;;;;5069783;28;20049;-69
2022/06/26 02:39:50;;;;;;;0.00;0.00;;;17.90;99.90;;;;;;5071800;28;20045;-69
2022/06/26 02:42:15;;;;;;;0.00;0.00;;;17.90;99.90;;;;;;5063979;28;20091;-69
2022/06/26 02:44:41;;;;;;;0.00;0.00;;;17.90;99.90;;;;;;5075418;28;20048;-68
2022/06/26 02:47:07;;;;;;;0.00;0.00;;;17.90;99.90;;;;;;5091264;28;20047;-68
2022/06/26 02:49:32;;;;;;;0.00;0.00;;;17.90;99.90;;;;;;5077127;28;20404;-68
2022/06/26 02:51:58;;;;;;;0.00;0.00;;;17.90;99.90;;;;;;5070126;28;20052;-68
2022/06/26 02:54:23;;;;;;;0.10;0.10;;;17.90;99.90;;;;;;5069652;28;20052;-67
2022/06/26 02:56:49;;;;;;;0.08;0.08;;;17.90;99.90;;;;;;5070143;28;20131;-68
2022/06/26 02:59:14;;;;;;;0.00;0.00;;;17.90;99.90;;;;;;5080577;28;20089;-68
2022/06/26 03:01:40;;;;;;;0.13;0.13;;;17.80;99.90;;;;;;5072269;28;20542;-68
2022/06/26 03:04:05;;;;;;;0.00;0.00;;;17.80;99.90;;;;;;5081990;28;20137;-67
2022/06/26 03:06:31;;;;;;;0.00;0.00;;;17.80;99.90;;;;;;5069090;28;20135;-68
2022/06/26 03:08:57;;;;;;;0.00;0.00;;;17.80;99.90;;;;;;5070170;28;20048;-68
2022/06/26 03:11:22;;;;;;;2.72;1.13;;;17.70;99.90;;;;;;5070814;28;20423;-67
2022/06/26 03:13:48;;;;;;;0.00;0.00;;;17.70;99.90;;;;;;5050276;28;20407;-68
2022/06/26 03:16:13;;;;;;;0.08;0.08;;;17.70;99.90;;;;;;5079085;28;20561;-68
2022/06/26 03:18:39;;;;;;;0.05;0.05;;;17.60;99.90;;;;;;5090837;28;20056;-68
2022/06/26 03:21:05;;;;;;;0.00;0.00;;;17.70;99.90;;;;;;5091000;28;20040;-68
2022/06/26 03:26:15;;;;;;;0.00;0.00;;;17.60;99.90;;;;;;5070681;28;20098;-68
2022/06/26 03:28:41;;;;;;;0.10;0.10;;;17.60;99.90;;;;;;5069126;28;20048;-68
2022/06/26 03:31:06;;;;;;;0.10;0.10;;;17.60;99.90;;;;;;5054186;28;20055;-68
2022/06/26 03:33:32;;;;;;;0.05;0.05;;;17.60;99.90;;;;;;5082398;28;20831;-68
2022/06/26 03:35:58;;;;;;;0.00;0.00;;;17.60;99.90;;;;;;5070377;28;20083;-69
2022/06/26 03:38:24;;;;;;;0.00;0.00;;;17.60;99.90;;;;;;5069926;28;20048;-69
2022/06/26 03:40:49;;;;;;;0.00;0.00;;;17.60;99.90;;;;;;5065670;28;20040;-68
2022/06/26 03:43:15;;;;;;;0.22;0.22;;;17.70;99.90;;;;;;5069415;28;20044;-68
2022/06/26 03:45:41;;;;;;;0.00;0.00;;;17.70;99.90;;;;;;5068084;28;20044;-68
2022/06/26 03:48:07;;;;;;;0.10;0.10;;;17.70;99.90;;;;;;5069903;28;20076;-68
2022/06/26 03:50:33;;;;;;;0.10;0.10;;;17.70;99.90;;;;;;5070405;28;20062;-68
2022/06/26 03:52:58;;;;;;;0.13;0.13;;;17.70;99.90;;;;;;5054365;28;20041;-68
2022/06/26 03:55:24;;;;;;;0.00;0.00;;;17.70;99.90;;;;;;5086370;28;20407;-68
2022/06/26 03:57:49;;;;;;;0.00;0.00;;;17.70;99.90;;;;;;5086471;28;20450;-68
2022/06/26 04:00:15;;;;;;;0.00;0.00;;;17.70;99.90;;;;;;5090261;28;20471;-68
2022/06/26 04:02:42;;;;;;;0.32;0.20;;;17.70;99.90;;;;;;5076598;28;20089;-68
2022/06/26 04:05:07;;;;;;;0.55;0.52;;;17.70;99.90;;;;;;5082589;28;20052;-68
2022/06/26 04:07:33;;;;;;;0.40;0.40;;;17.80;99.90;;;;;;5076721;28;20096;-68
2022/06/26 04:09:59;;;;;;;0.20;0.20;;;17.80;99.90;;;;;;5070016;28;20176;-68
2022/06/26 04:12:24;;;;;;;0.10;0.10;;;17.80;99.90;;;;;;5067914;28;20116;-68
2022/06/26 04:14:50;;;;;;;0.05;0.05;;;17.80;99.90;;;;;;5059747;28;20438;-69
2022/06/26 04:17:16;;;;;;;0.00;0.00;;;17.90;99.90;;;;;;5061439;28;20545;-69
2022/06/26 04:19:41;;;;;;;0.03;0.03;;;17.90;99.90;;;;;;5060099;28;20045;-69
2022/06/26 04:22:07;;;;;;;0.20;0.20;;;17.80;99.90;;;;;;5065424;28;20052;-69
2022/06/26 04:24:33;;;;;;;0.00;0.00;;;17.80;99.90;;;;;;5069010;28;20043;-69
2022/06/26 04:26:59;;;;;;;0.00;0.00;;;17.80;99.90;;;;;;5051292;28;20032;-69
2022/06/26 04:29:24;;;;;;;0.10;0.10;;;17.80;99.90;;;;;;5053336;28;20550;-69
2022/06/26 04:31:50;;;;;;;0.15;0.15;;;17.80;99.90;;;;;;5065606;28;20047;-69
2022/06/26 04:34:15;;;;;;;0.52;0.52;;;17.80;99.90;;;;;;5067350;28;20064;-69
2022/06/26 04:36:41;;;;;;;0.10;0.10;;;17.90;99.90;;;;;;5051637;28;20053;-69
2022/06/26 04:39:06;;;;;;;0.10;0.10;;;17.90;99.90;;;;;;5066147;28;20033;-70
2022/06/26 04:41:34;;;;;;;0.50;0.47;;;17.90;99.90;;;;;;5077235;28;20094;-70
2022/06/26 04:44:01;;;;;;;0.22;0.22;;;17.90;99.90;;;;;;5068538;28;20049;-70
2022/06/26 04:46:27;;;;;;;0.00;0.00;;;17.90;99.90;;;;;;5066956;28;20091;-70
2022/06/26 04:48:52;;;;;;;0.10;0.10;;;17.90;99.90;;;;;;5047072;28;20079;-70
2022/06/26 04:51:18;;;;;;;0.57;0.57;;;17.90;99.90;;;;;;5068212;28;20447;-70
2022/06/26 04:53:44;;;;;;;0.10;0.10;;;17.90;99.90;;;;;;5055747;28;20059;-70
2022/06/26 04:56:09;;;;;;;0.80;0.55;;;17.90;99.90;;;;;;5073081;28;20070;-70
2022/06/26 04:58:35;;;;;;;0.00;0.00;;;17.90;99.90;;;;;;5071670;28;20048;-70
2022/06/26 05:01:02;;;;;;;0.17;0.17;;;17.90;99.90;;;;;;5073145;28;20040;-70
2022/06/26 05:03:27;;;;;;;0.35;0.35;;;18.00;99.90;;;;;;5071981;28;20037;-70
2022/06/26 05:05:53;;;;;;;0.10;0.10;;;18.10;99.90;;;;;;5085644;28;20039;-70
2022/06/26 05:08:19;;;;;;;0.38;0.38;;;18.10;99.90;;;;;;5086354;28;20037;-70
2022/06/26 05:10:44;;;;;;;0.20;0.20;;;18.10;99.90;;;;;;5066016;28;20049;-70
2022/06/26 05:13:10;;;;;;;0.32;0.32;;;18.10;99.90;;;;;;5067199;28;20051;-71
2022/06/26 05:15:35;;;;;;;0.00;0.00;;;18.10;99.90;;;;;;5040629;28;20080;-70
2022/06/26 05:18:01;;;;;;;0.13;0.13;;;18.10;99.90;;;;;;5070610;28;20048;-71
2022/06/26 05:20:26;;;;;;;0.40;0.40;;;18.10;99.90;;;;;;5075782;28;20044;-70
2022/06/26 05:22:52;;;;;;;0.30;0.30;;;18.20;99.90;;;;;;5060650;28;20051;-71
2022/06/26 05:25:17;;;;;;;0.22;0.22;;;18.10;99.90;;;;;;5072757;28;20054;-71
2022/06/26 05:27:43;;;;;;;2.60;2.38;;;18.10;99.90;;;;;;5068504;28;20048;-71
2022/06/26 05:30:09;;;;;;;0.05;0.05;;;18.10;99.90;;;;;;5078488;28;20052;-71
2022/06/26 05:32:35;;;;;;;0.22;0.22;;;18.10;99.90;;;;;;5068099;28;20045;-70
2022/06/26 05:35:00;;;;;;;0.73;0.73;;;18.10;99.90;;;;;;5043888;28;20106;-71
2022/06/26 05:37:26;;;;;;;0.00;0.00;;;18.00;99.90;;;;;;5064967;28;20126;-71
2022/06/26 05:39:51;;;;;;;2.72;0.65;;;18.10;99.90;;;;;;5068347;28;20579;-71
2022/06/26 05:42:17;;;;;;;2.30;0.98;;;18.10;99.90;;;;;;5051318;28;20029;-71
2022/06/26 05:44:42;;;;;;;0.47;0.20;;;18.10;99.90;;;;;;5051016;28;20071;-70
2022/06/26 05:47:08;;;;;;;0.28;0.28;;;18.10;99.90;;;;;;5066814;28;20044;-71
2022/06/26 05:49:33;;;;;;;0.28;0.28;;;18.10;99.90;;;;;;5047175;28;20044;-72
2022/06/26 05:52:00;;;;;;;0.20;0.20;;;18.10;99.90;;;;;;5059106;28;20106;-71
2022/06/26 05:54:26;;;;;;;0.10;0.10;;;18.20;99.90;;;;;;5072186;28;20048;-70
2022/06/26 05:56:52;;;;;;;0.00;0.00;;;18.10;99.90;;;;;;5059799;28;20060;-71
2022/06/26 05:59:17;;;;;;;1.27;0.80;;;18.20;99.90;;;;;;5062859;28;20048;-71
2022/06/26 06:01:43;;;;;;;0.28;0.28;;;18.20;99.90;;;;;;5072162;28;20044;-71
2022/06/26 06:04:08;;;;;;;0.80;0.47;;;18.10;99.90;;;;;;5070740;28;20115;-71
2022/06/26 06:06:34;;;;;;;0.88;0.65;;;18.10;99.90;;;;;;5073563;28;20059;-70
2022/06/26 06:09:00;;;;;;;0.10;0.10;;;18.10;99.90;;;;;;5070446;28;20795;-70
2022/06/26 06:11:26;;;;;;;0.10;0.10;;;18.10;99.90;;;;;;5069637;28;20048;-70
2022/06/26 06:13:51;;;;;;;3.03;0.65;;;18.20;99.90;;;;;;5083589;28;20043;-71
2022/06/26 06:16:18;;;;;;;1.20;1.10;;;18.20;99.90;;;;;;5065418;28;20057;-71
2022/06/26 06:18:43;;;;;;;1.15;0.85;;;18.20;99.90;;;;;;5060791;28;20072;-71
2022/06/26 06:21:09;;;;;;;0.63;0.45;;;18.20;99.90;;;;;;5070898;28;20306;-71
2022/06/26 06:23:34;;;;;;;0.30;0.30;;;18.10;99.90;;;;;;5074979;28;20040;-71
2022/06/26 06:26:00;;;;;;;0.15;0.15;;;18.10;99.90;;;;;;5052202;28;20127;-71
2022/06/26 06:28:26;;;;;;;1.17;0.40;;;18.10;99.90;;;;;;5068641;28;20040;-70
2022/06/26 06:30:51;;;;;;;0.40;0.40;;;18.20;99.90;;;;;;5060395;28;20040;-70
2022/06/26 06:33:17;;;;;;;0.88;0.85;;;18.20;99.90;;;;;;5064638;28;20052;-70
2022/06/26 06:35:43;;;;;;;0.05;0.05;;;18.30;99.90;;;;;;5080176;28;20580;-70
2022/06/26 06:38:09;;;;;;;0.00;0.00;;;18.30;99.90;;;;;;5055418;28;20443;-71
2022/06/26 06:40:35;;;;;;;0.20;0.20;;;18.40;99.90;;;;;;5062302;28;20040;-71
2022/06/26 06:43:00;;;;;;;1.13;0.93;;;18.40;99.90;;;;;;5068850;28;20115;-71
2022/06/26 06:45:26;;;;;;;1.13;0.55;;;18.40;99.90;;;;;;5083747;28;20044;-71
2022/06/26 06:47:52;;;;;;;0.15;0.15;;;18.50;99.90;;;;;;5056115;28;20094;-71
2022/06/26 06:50:17;;;;;;;0.43;0.22;;;18.60;99.90;;;;;;5063415;28;20063;-71
2022/06/26 06:52:43;;;;;;;1.88;0.50;;;18.60;99.90;;;;;;5068428;28;20047;-71
2022/06/26 06:55:09;;;;;;;0.73;0.73;;;18.60;99.90;;;;;;5033135;28;20404;-70
2022/06/26 06:57:34;;;;;;;0.10;0.10;;;18.40;99.90;;;;;;5068285;28;20067;-71
2022/06/26 07:00:01;;;;;;;0.10;0.10;;;18.50;99.90;;;;;;5088024;28;20488;-71
2022/06/26 07:02:26;;;;;;;0.10;0.10;;;18.60;99.90;;;;;;5069409;28;20472;-70
2022/06/26 07:04:52;;;;;;;0.10;0.10;;;18.60;99.90;;;;;;5051104;28;20132;-70
2022/06/26 07:07:17;;;;;;;0.50;0.50;;;18.60;99.90;;;;;;5069535;28;20143;-71
2022/06/26 07:09:43;;;;;;;0.10;0.10;;;18.60;99.90;;;;;;5090708;28;20119;-71
2022/06/26 07:12:09;;;;;;;0.20;0.20;;;18.60;99.90;;;;;;5062065;28;20102;-71
2022/06/26 07:14:35;;;;;;;0.13;0.13;;;18.60;99.90;;;;;;5065870;28;20044;-71
2022/06/26 07:17:00;;;;;;;0.28;0.28;;;18.60;99.90;;;;;;5070330;28;20052;-71
2022/06/26 07:19:26;;;;;;;0.28;0.28;;;18.70;99.90;;;;;;5051180;28;20033;-71
2022/06/26 07:21:53;;;;;;;0.03;0.03;;;18.60;99.90;;;;;;5068901;28;20039;-71
2022/06/26 07:24:18;;;;;;;0.10;0.10;;;18.70;99.90;;;;;;5073679;28;20036;-71
2022/06/26 07:26:44;;;;;;;0.15;0.15;;;18.70;99.90;;;;;;5063553;28;20067;-71
2022/06/26 07:29:10;;;;;;;0.13;0.13;;;18.80;99.90;;;;;;5069682;28;20055;-72
2022/06/26 07:31:35;;;;;;;0.00;0.00;;;18.80;99.90;;;;;;5070755;28;20052;-71
2022/06/26 07:34:13;;;;;;;0.10;0.10;;;18.70;99.90;;;;;;5069609;28;20095;-71
2022/06/26 07:36:41;;;;;;;0.00;0.00;;;18.70;99.90;;;;;;5053841;28;20089;-71
2022/06/26 07:39:07;;;;;;;0.15;0.15;;;18.80;99.90;;;;;;5087234;28;20036;-71
2022/06/26 07:41:33;;;;;;;0.00;0.00;;;18.90;99.90;;;;;;5073512;28;20044;-72
2022/06/26 07:43:59;;;;;;;0.10;0.10;;;19.00;99.90;;;;;;5071693;28;20046;-71
2022/06/26 07:46:24;;;;;;;0.10;0.10;;;19.00;99.90;;;;;;5072515;28;20048;-71
2022/06/26 07:48:50;;;;;;;0.00;0.00;;;19.00;99.90;;;;;;5085050;28;20072;-72
2022/06/26 07:51:15;;;;;;;0.00;0.00;;;19.10;99.90;;;;;;5069455;28;20499;-72
2022/06/26 07:53:41;;;;;;;0.00;0.00;;;19.20;99.90;;;;;;5052101;28;20052;-72
2022/06/26 07:56:07;;;;;;;0.10;0.10;;;19.20;99.90;;;;;;5068264;28;20131;-71
2022/06/26 07:58:32;;;;;;;0.10;0.10;;;19.30;99.90;;;;;;5061766;28;20081;-71
2022/06/26 08:00:58;;;;;;;0.10;0.08;;;19.40;99.90;;;;;;5037558;28;20041;-70
2022/06/26 08:03:24;;;;;;;0.15;0.15;;;19.30;99.90;;;;;;5062796;28;20049;-71
2022/06/26 08:05:49;;;;;;;0.10;0.10;;;19.20;99.90;;;;;;5048522;28;20763;-71
2022/06/26 08:08:15;;;;;;;0.08;0.08;;;19.20;99.90;;;;;;5070268;28;20087;-71
2022/06/26 08:10:41;;;;;;;1.00;0.70;;;19.30;99.90;;;;;;5070905;28;20079;-71
2022/06/26 08:13:07;;;;;;;0.43;0.15;;;19.40;99.90;;;;;;5070253;28;20467;-71
2022/06/26 08:15:34;;;;;;;0.00;0.00;;;19.50;99.90;;;;;;5070243;28;20127;-71
2022/06/26 08:18:00;;;;;;;0.00;0.00;;;19.50;99.90;;;;;;5074443;28;20079;-71
2022/06/26 08:20:25;;;;;;;2.53;0.25;;;19.60;99.90;;;;;;5084798;28;20075;-71
2022/06/26 08:22:51;;;;;;;0.65;0.65;;;19.70;99.90;;;;;;5071312;28;20036;-71
2022/06/26 08:25:17;;;;;;;0.00;0.00;;;19.90;99.90;;;;;;5076803;28;20032;-72
2022/06/26 08:27:42;;;;;;;0.10;0.10;;;20.00;99.90;;;;;;5058804;28;20045;-71
2022/06/26 08:30:09;;;;;;;0.05;0.05;;;20.00;99.90;;;;;;5079605;28;20036;-71
2022/06/26 08:32:35;;;;;;;0.10;0.10;;;19.90;99.90;;;;;;5056381;28;20052;-71
2022/06/26 08:35:03;;;;;;;0.03;0.03;;;19.90;99.90;;;;;;5043224;28;20392;-71
2022/06/26 08:37:28;;;;;;;0.00;0.00;;;19.80;99.90;;;;;;5071456;28;20152;-71
2022/06/26 08:39:54;;;;;;;0.25;0.25;;;19.90;99.90;;;;;;5064027;28;20543;-71
2022/06/26 08:42:21;;;;;;;4.22;1.08;;;19.80;99.90;;;;;;5055649;28;20090;-71
2022/06/26 08:44:47;;;;;;;0.00;0.00;;;19.70;99.90;;;;;;5089707;28;20075;-71
2022/06/26 08:47:14;;;;;;;0.20;0.20;;;19.70;99.90;;;;;;5060453;28;20071;-71
2022/06/26 08:49:40;;;;;;;0.10;0.10;;;19.70;99.90;;;;;;5066844;28;20087;-71
2022/06/26 08:52:09;;;;;;;0.00;0.00;;;19.80;99.90;;;;;;5033602;28;20051;-71
2022/06/26 08:54:35;;;;;;;0.00;0.00;;;19.80;99.90;;;;;;5066386;28;20107;-70
2022/06/26 08:57:01;;;;;;;0.20;0.20;;;19.90;99.90;;;;;;5036257;28;20706;-70
2022/06/26 08:59:29;;;;;;;0.10;0.10;;;19.90;99.90;;;;;;5051510;28;20052;-70
2022/06/26 09:01:54;;;;;;;0.22;0.22;;;19.90;99.90;;;;;;5089227;28;20050;-70
2022/06/26 09:04:20;;;;;;;0.00;0.00;;;19.90;99.90;;;;;;5069672;28;20107;-71
2022/06/26 09:06:46;;;;;;;0.00;0.00;;;20.00;99.90;;;;;;5050643;28;20045;-71
2022/06/26 09:09:16;;;;;;;0.32;0.13;;;19.90;99.90;;;;;;5088416;28;20040;-71
2022/06/26 09:11:43;;;;;;;0.10;0.10;;;20.00;99.90;;;;;;5071551;28;20433;-71
2022/06/26 09:14:11;;;;;;;0.10;0.10;;;20.10;99.90;;;;;;5069433;28;20068;-70
2022/06/26 09:16:39;;;;;;;0.00;0.00;;;20.20;99.90;;;;;;5066460;28;20086;-70
2022/06/26 09:19:28;;;;;;;0.05;0.05;;;20.20;99.90;;;;;;5048136;28;20095;-69
2022/06/26 09:22:05;;;;;;;0.20;0.20;;;20.30;99.90;;;;;;5058284;28;20494;-70
2022/06/26 09:24:33;;;;;;;0.00;0.00;;;20.30;99.90;;;;;;5072641;28;20044;-71
2022/06/26 09:27:10;;;;;;;0.00;0.00;;;20.40;99.90;;;;;;5048974;28;20106;-70
2022/06/26 09:29:36;;;;;;;0.25;0.25;;;20.40;99.90;;;;;;5030715;28;20056;-71
2022/06/26 09:32:14;;;;;;;0.15;0.15;;;20.40;99.90;;;;;;5050963;28;20083;-70
2022/06/26 09:34:47;;;;;;;0.10;0.10;;;20.50;99.90;;;;;;5053166;28;20044;-70
2022/06/26 09:37:13;;;;;;;0.00;0.00;;;20.40;99.90;;;;;;5061744;28;20510;-70
2022/06/26 09:39:39;;;;;;;0.63;0.63;;;20.40;99.90;;;;;;5072273;28;20051;-71
2022/06/26 09:42:15;;;;;;;0.10;0.10;;;20.50;99.90;;;;;;5034759;28;20037;-71
2022/06/26 09:44:52;;;;;;;0.05;0.05;;;20.70;99.90;;;;;;5056526;28;20067;-71
2022/06/26 09:47:35;;;;;;;0.10;0.10;;;20.70;99.90;;;;;;5074671;28;20078;-71
2022/06/26 09:50:07;;;;;;;0.00;0.00;;;20.80;99.90;;;;;;5092176;28;20048;-71
2022/06/26 09:52:33;;;;;;;0.10;0.10;;;20.80;99.90;;;;;;5092596;28;20044;-70
2022/06/26 09:55:00;;;;;;;0.20;0.20;;;20.80;99.90;;;;;;5070984;28;20052;-71
2022/06/26 09:57:28;;;;;;;0.57;0.45;;;20.80;99.90;;;;;;5065220;28;20080;-69
2022/06/26 09:59:57;;;;;;;0.00;0.00;;;20.80;99.90;;;;;;5066458;28;20083;-70
2022/06/26 10:07:55;;;;;;;0.15;0.10;;;21.30;99.90;;;;;;5050234;28;20131;-70
2022/06/26 10:10:23;;;;;;;0.00;0.00;;;21.60;99.90;;;;;;5071943;28;20044;-70
2022/06/26 10:12:55;;;;;;;0.00;0.00;;;21.80;99.90;;;;;;5071449;28;20488;-70
2022/06/26 10:15:26;;;;;;;0.80;0.57;;;22.00;99.90;;;;;;5069427;28;20045;-71
2022/06/26 10:18:10;;;;;;;0.13;0.13;;;22.20;99.90;;;;;;5070978;28;20367;-70
2022/06/26 10:20:37;;;;;;;0.00;0.00;;;22.20;99.90;;;;;;5070376;28;20033;-71
2022/06/26 10:23:03;;;;;;;0.10;0.10;;;22.10;99.90;;;;;;5071778;28;20056;-71
2022/06/26 10:25:30;;;;;;;0.55;0.55;;;21.90;99.90;;;;;;5075320;28;20138;-71
2022/06/26 10:27:57;;;;;;;0.00;0.00;;;22.00;99.90;;;;;;5077672;28;20083;-71
2022/06/26 10:30:25;;;;;;;0.00;0.00;;;21.80;99.90;;;;;;5047087;28;20129;-71
2022/06/26 10:33:10;;;;;;;0.00;0.00;;;21.90;99.90;;;;;;5052850;28;20051;-70
2022/06/26 10:35:46;;;;;;;0.20;0.10;;;21.80;99.90;;;;;;5071111;28;20056;-70
2022/06/26 10:38:26;;;;;;;0.00;0.00;;;21.80;99.90;;;;;;5071316;28;20052;-71
2022/06/26 10:44:16;;;;;;;0.00;0.00;;;21.90;99.90;;;;;;5058662;28;20053;-71
2022/06/26 10:46:50;;;;;;;0.05;0.05;;;21.90;99.90;;;;;;5062739;28;20368;-70
2022/06/26 10:49:15;;;;;;;;;;;21.90;99.90;;;;;;5061910;28;20054;-70
2022/06/26 10:51:43;;;;;;;0.65;0.47;;;21.80;99.90;;;;;;5068032;28;19924;-70
2022/06/26 10:54:19;;;;;;;0.00;0.00;;;21.80;99.90;;;;;;5066680;28;20066;-69
2022/06/26 10:56:46;;;;;;;0.30;0.20;;;21.80;99.90;;;;;;5048871;28;20053;-69
2022/06/26 10:59:16;;;;;;;0.10;0.10;;;21.90;99.90;;;;;;5061607;28;20049;-70
2022/06/26 11:01:41;;;;;;;0.17;0.17;;;22.00;99.90;;;;;;5048942;28;20056;-70
2022/06/26 11:04:07;;;;;;;0.10;0.10;;;22.00;99.90;;;;;;5057692;28;20043;-69
2022/06/26 11:06:40;;;;;;;0.10;0.10;;;21.90;99.90;;;;;;5050282;28;20613;-70
2022/06/26 11:09:08;;;;;;;0.17;0.17;;;21.80;99.90;;;;;;5070288;28;20046;-69
2022/06/26 11:11:34;;;;;;;0.03;0.03;;;21.70;99.90;;;;;;5053187;28;20051;-69
2022/06/26 11:14:05;;;;;;;0.10;0.10;;;21.70;99.90;;;;;;5064440;28;20090;-70
2022/06/26 11:16:42;;;;;;;0.20;0.20;;;21.60;99.90;;;;;;5063090;28;20056;-70
2022/06/26 11:19:20;;;;;;;0.22;0.20;;;21.50;99.90;;;;;;5066649;28;20053;-70
2022/06/26 11:21:45;;;;;;;0.20;0.20;;;21.50;99.90;;;;;;5064148;28;20131;-70
2022/06/26 11:24:11;;;;;;;0.10;0.10;;;21.60;99.90;;;;;;5051844;28;20132;-70
2022/06/26 11:26:37;;;;;;;0.52;0.22;;;21.70;99.90;;;;;;5057249;28;20479;-70
2022/06/26 11:29:04;;;;;;;0.98;0.90;;;21.70;99.90;;;;;;5066534;28;20037;-70
2022/06/26 11:31:32;;;;;;;0.22;0.22;;;21.80;99.90;;;;;;5070526;28;20534;-70
2022/06/26 11:34:11;;;;;;;0.00;0.00;;;21.80;99.90;;;;;;5068684;28;20040;-70
2022/06/26 11:36:51;;;;;;;1.35;1.15;;;21.90;99.90;;;;;;5040542;28;20102;-70
2022/06/26 11:39:17;;;;;;;0.05;0.05;;;22.10;99.90;;;;;;5043389;28;20096;-70
2022/06/26 11:41:43;;;;;;;0.38;0.10;;;21.90;99.90;;;;;;5070298;28;20119;-70
2022/06/26 11:44:08;;;;;;;0.10;0.10;;;21.80;99.90;;;;;;5051317;28;20523;-70
2022/06/26 11:46:34;;;;;;;0.00;0.00;;;21.80;99.90;;;;;;5052461;28;20538;-70
2022/06/26 11:49:00;;;;;;;0.15;0.15;;;21.90;99.90;;;;;;5066647;28;20119;-70
2022/06/26 11:51:30;;;;;;;0.38;0.30;;;21.80;99.90;;;;;;5072355;28;20060;-70
2022/06/26 11:53:56;;;;;;;0.28;0.10;;;21.60;99.90;;;;;;5071003;28;20077;-70
2022/06/26 11:56:27;;;;;;;0.32;0.32;;;21.60;99.90;;;;;;5067532;28;20076;-71
2022/06/26 11:58:54;;;;;;;0.00;0.00;;;21.70;99.90;;;;;;5079896;28;20048;-70
2022/06/26 12:01:29;;;;;;;0.30;0.30;;;21.80;99.90;;;;;;5051036;28;20052;-71
2022/06/26 12:03:55;;;;;;;0.08;0.08;;;22.00;99.90;;;;;;5051142;28;20057;-70
2022/06/26 12:06:36;;;;;;;0.40;0.40;;;22.00;99.90;;;;;;5085596;28;20048;-71
2022/06/26 12:09:20;;;;;;;0.32;0.32;;;21.90;99.90;;;;;;5078521;28;20037;-71
2022/06/26 12:11:49;;;;;;;0.43;0.43;;;22.10;99.90;;;;;;5046756;28;20129;-71
2022/06/26 12:14:16;;;;;;;0.05;0.05;;;22.60;99.90;;;;;;5051567;28;20054;-71
2022/06/26 12:16:46;;;;;;;0.00;0.00;;;22.40;99.90;;;;;;5074015;28;20744;-70
2022/06/26 12:19:12;;;;;;;0.20;0.17;;;22.50;99.90;;;;;;5075186;28;20119;-71
2022/06/26 12:21:38;;;;;;;0.00;0.00;;;22.20;99.90;;;;;;5085037;28;20169;-71
2022/06/26 12:24:11;;;;;;;0.03;0.03;;;22.40;99.90;;;;;;5069323;28;20063;-71
2022/06/26 12:26:38;;;;;;;0.00;0.00;;;22.20;99.90;;;;;;5069295;28;20048;-71
2022/06/26 12:29:10;;;;;;;0.20;0.20;;;22.10;99.90;;;;;;5045925;28;20122;-71
2022/06/26 12:31:35;;;;;;;0.52;0.50;;;22.20;99.90;;;;;;5064767;28;20480;-71
2022/06/26 12:34:04;;;;;;;0.00;0.00;;;22.50;99.90;;;;;;5067504;28;20056;-71
2022/06/26 12:36:29;;;;;;;0.10;0.10;;;22.90;99.90;;;;;;5057200;28;20048;-71
2022/06/26 12:38:55;;;;;;;0.00;0.00;;;23.10;99.90;;;;;;5065853;28;20056;-71
2022/06/26 12:41:21;;;;;;;0.30;0.30;;;23.20;99.90;;;;;;5069544;28;20035;-71
2022/06/26 12:43:49;;;;;;;0.00;0.00;;;23.30;99.90;;;;;;5063127;28;20555;-70
2022/06/26 12:46:15;;;;;;;0.10;0.10;;;23.00;99.90;;;;;;5088842;28;20793;-71
2022/06/26 12:48:41;;;;;;;0.22;0.22;;;23.10;99.90;;;;;;5083142;28;20085;-71
2022/06/26 12:51:07;;;;;;;0.10;0.10;;;22.90;99.90;;;;;;5089796;28;20036;-70
2022/06/26 12:53:33;;;;;;;2.75;1.02;;;23.10;99.90;;;;;;5057045;28;20053;-71
2022/06/26 12:55:59;;;;;;;0.00;0.00;;;22.90;99.90;;;;;;5066593;28;20051;-70
2022/06/26 12:58:25;;;;;;;0.10;0.10;;;22.90;99.90;;;;;;5067901;28;20044;-71
2022/06/26 13:00:51;;;;;;;0.20;0.20;;;22.90;99.90;;;;;;5049584;28;20048;-71
2022/06/26 13:03:17;;;;;;;0.10;0.10;;;22.90;99.90;;;;;;5066345;28;20921;-71